sensor_id;sensor_type;location;lat;lon;timestamp;pressure;altitude;pressure_sealevel;temperature;humidity
34482;BME280;20720;48.886;9.388;2023-07-28T00:02:06;97564.16;;;21.74;100.00
34482;BME280;20720;48.886;9.388;2023-07-28T00:04:33;97556.91;;;21.56;100.00
34482;BME280;20720;48.886;9.388;2023-07-28T00:06:59;97563.97;;;21.71;100.00
34482;BME280;20720;48.886;9.388;2023-07-28T00:09:24;97571.47;;;21.69;100.00
34482;BME280;20720;48.886;9.388;2023-07-28T00:11:49;97569.00;;;21.53;100.00
34482;BME280;20720;48.886;9.388;2023-07-28T00:14:14;97564.22;;;21.50;100.00
34482;BME280;20720;48.886;9.388;2023-07-28T00:16:40;97565.53;;;21.53;100.00
34482;BME280;20720;48.886;9.388;2023-07-28T00:19:05;97566.69;;;21.66;100.00
34482;BME280;20720;48.886;9.388;2023-07-28T00:21:31;97559.25;;;21.44;100.00
34482;BME280;20720;48.886;9.388;2023-07-28T00:23:56;97559.69;;;21.27;100.00
34482;BME280;20720;48.886;9.388;2023-07-28T00:26:21;97549.81;;;21.28;100.00
34482;BME280;20720;48.886;9.388;2023-07-28T00:28:46;97558.50;;;21.38;100.00
34482;BME280;20720;48.886;9.388;2023-07-28T00:31:12;97553.19;;;21.15;100.00
34482;BME280;20720;48.886;9.388;2023-07-28T00:33:37;97558.69;;;21.23;100.00
34482;BME280;20720;48.886;9.388;2023-07-28T00:36:03;97559.31;;;21.15;100.00
34482;BME280;20720;48.886;9.388;2023-07-28T00:38:28;97553.47;;;21.13;100.00
34482;BME280;20720;48.886;9.388;2023-07-28T00:40:53;97552.81;;;20.98;100.00
34482;BME280;20720;48.886;9.388;2023-07-28T00:43:19;97542.69;;;20.71;100.00
34482;BME280;20720;48.886;9.388;2023-07-28T00:45:44;97536.28;;;20.72;100.00
34482;BME280;20720;48.886;9.388;2023-07-28T00:48:13;97540.81;;;20.72;100.00
34482;BME280;20720;48.886;9.388;2023-07-28T00:50:41;97539.56;;;20.64;100.00
34482;BME280;20720;48.886;9.388;2023-07-28T00:53:07;97542.63;;;21.00;100.00
34482;BME280;20720;48.886;9.388;2023-07-28T00:55:32;97539.66;;;20.54;100.00
34482;BME280;20720;48.886;9.388;2023-07-28T00:57:58;97534.31;;;20.54;100.00
34482;BME280;20720;48.886;9.388;2023-07-28T01:00:23;97540.38;;;20.65;100.00
34482;BME280;20720;48.886;9.388;2023-07-28T01:02:49;97548.47;;;20.78;100.00
34482;BME280;20720;48.886;9.388;2023-07-28T01:05:14;97541.00;;;20.51;100.00
34482;BME280;20720;48.886;9.388;2023-07-28T01:07:47;97548.09;;;20.66;100.00
34482;BME280;20720;48.886;9.388;2023-07-28T01:10:30;97550.75;;;20.37;100.00
34482;BME280;20720;48.886;9.388;2023-07-28T01:12:57;97540.47;;;20.54;100.00
34482;BME280;20720;48.886;9.388;2023-07-28T01:15:22;97554.84;;;20.58;100.00
34482;BME280;20720;48.886;9.388;2023-07-28T01:17:47;97550.75;;;20.04;100.00
34482;BME280;20720;48.886;9.388;2023-07-28T01:20:13;97546.41;;;20.46;100.00
34482;BME280;20720;48.886;9.388;2023-07-28T01:25:46;97539.84;;;20.34;100.00
34482;BME280;20720;48.886;9.388;2023-07-28T01:28:13;97532.75;;;20.53;100.00
34482;BME280;20720;48.886;9.388;2023-07-28T01:30:38;97540.66;;;20.87;100.00
34482;BME280;20720;48.886;9.388;2023-07-28T01:33:06;97545.88;;;20.11;100.00
34482;BME280;20720;48.886;9.388;2023-07-28T01:35:32;97553.56;;;20.51;100.00
34482;BME280;20720;48.886;9.388;2023-07-28T01:37:57;97556.31;;;20.07;100.00
34482;BME280;20720;48.886;9.388;2023-07-28T01:40:22;97544.84;;;20.40;100.00
34482;BME280;20720;48.886;9.388;2023-07-28T01:42:48;97532.72;;;19.86;100.00
34482;BME280;20720;48.886;9.388;2023-07-28T01:45:13;97534.81;;;20.27;100.00
34482;BME280;20720;48.886;9.388;2023-07-28T01:47:38;97537.34;;;20.09;100.00
34482;BME280;20720;48.886;9.388;2023-07-28T01:50:04;97546.16;;;20.43;100.00
34482;BME280;20720;48.886;9.388;2023-07-28T01:52:30;97547.56;;;20.35;100.00
34482;BME280;20720;48.886;9.388;2023-07-28T01:54:55;97550.09;;;20.17;100.00
34482;BME280;20720;48.886;9.388;2023-07-28T01:57:20;97548.19;;;20.56;100.00
34482;BME280;20720;48.886;9.388;2023-07-28T01:59:45;97550.94;;;20.46;100.00
34482;BME280;20720;48.886;9.388;2023-07-28T02:02:11;97553.19;;;20.63;100.00
34482;BME280;20720;48.886;9.388;2023-07-28T02:04:36;97546.78;;;20.35;100.00
34482;BME280;20720;48.886;9.388;2023-07-28T02:07:01;97543.88;;;20.60;100.00
34482;BME280;20720;48.886;9.388;2023-07-28T02:09:26;97548.56;;;20.44;100.00
34482;BME280;20720;48.886;9.388;2023-07-28T02:11:52;97531.25;;;19.64;100.00
34482;BME280;20720;48.886;9.388;2023-07-28T02:14:17;97540.41;;;20.31;100.00
34482;BME280;20720;48.886;9.388;2023-07-28T02:16:43;97543.59;;;20.33;100.00
34482;BME280;20720;48.886;9.388;2023-07-28T02:19:08;97549.81;;;20.52;100.00
34482;BME280;20720;48.886;9.388;2023-07-28T02:21:33;97550.75;;;20.37;100.00
34482;BME280;20720;48.886;9.388;2023-07-28T02:23:59;97556.78;;;20.48;100.00
34482;BME280;20720;48.886;9.388;2023-07-28T02:26:25;97551.41;;;20.53;100.00
34482;BME280;20720;48.886;9.388;2023-07-28T02:28:50;97554.78;;;20.35;100.00
34482;BME280;20720;48.886;9.388;2023-07-28T02:31:15;97553.59;;;20.46;100.00
34482;BME280;20720;48.886;9.388;2023-07-28T02:33:41;97550.06;;;20.27;100.00
34482;BME280;20720;48.886;9.388;2023-07-28T02:36:06;97551.97;;;20.50;100.00
34482;BME280;20720;48.886;9.388;2023-07-28T02:38:31;97553.06;;;20.49;100.00
34482;BME280;20720;48.886;9.388;2023-07-28T02:40:56;97546.34;;;20.51;100.00
34482;BME280;20720;48.886;9.388;2023-07-28T02:43:21;97548.25;;;20.46;100.00
34482;BME280;20720;48.886;9.388;2023-07-28T02:45:48;97556.91;;;20.38;100.00
34482;BME280;20720;48.886;9.388;2023-07-28T02:48:14;97560.34;;;20.38;100.00
34482;BME280;20720;48.886;9.388;2023-07-28T02:50:39;97555.13;;;20.28;100.00
34482;BME280;20720;48.886;9.388;2023-07-28T02:53:10;97562.47;;;20.41;100.00
34482;BME280;20720;48.886;9.388;2023-07-28T02:55:41;97556.09;;;19.99;100.00
34482;BME280;20720;48.886;9.388;2023-07-28T02:58:06;97551.81;;;20.03;100.00
34482;BME280;20720;48.886;9.388;2023-07-28T03:00:31;97561.38;;;20.09;100.00
34482;BME280;20720;48.886;9.388;2023-07-28T03:02:56;97565.56;;;20.20;100.00
34482;BME280;20720;48.886;9.388;2023-07-28T03:05:21;97551.63;;;19.50;100.00
34482;BME280;20720;48.886;9.388;2023-07-28T03:07:47;97569.72;;;20.36;100.00
34482;BME280;20720;48.886;9.388;2023-07-28T03:10:13;97580.94;;;20.67;100.00
34482;BME280;20720;48.886;9.388;2023-07-28T03:12:41;97580.94;;;20.33;100.00
34482;BME280;20720;48.886;9.388;2023-07-28T03:15:07;97562.81;;;19.91;100.00
34482;BME280;20720;48.886;9.388;2023-07-28T03:17:32;97580.88;;;20.43;100.00
34482;BME280;20720;48.886;9.388;2023-07-28T03:19:57;97591.03;;;20.70;100.00
34482;BME280;20720;48.886;9.388;2023-07-28T03:22:23;97596.44;;;20.65;100.00
34482;BME280;20720;48.886;9.388;2023-07-28T03:24:48;97607.06;;;20.70;100.00
34482;BME280;20720;48.886;9.388;2023-07-28T03:27:13;97601.94;;;20.73;100.00
34482;BME280;20720;48.886;9.388;2023-07-28T03:29:39;97611.56;;;20.74;100.00
34482;BME280;20720;48.886;9.388;2023-07-28T03:32:04;97614.22;;;20.74;100.00
34482;BME280;20720;48.886;9.388;2023-07-28T03:34:30;97632.72;;;20.94;100.00
34482;BME280;20720;48.886;9.388;2023-07-28T03:36:55;97630.63;;;20.91;100.00
34482;BME280;20720;48.886;9.388;2023-07-28T03:39:20;97629.00;;;20.67;100.00
34482;BME280;20720;48.886;9.388;2023-07-28T03:41:46;97641.94;;;20.78;100.00
34482;BME280;20720;48.886;9.388;2023-07-28T03:44:11;97636.13;;;20.71;100.00
34482;BME280;20720;48.886;9.388;2023-07-28T03:46:36;97633.41;;;20.76;100.00
34482;BME280;20720;48.886;9.388;2023-07-28T03:49:02;97639.16;;;20.59;100.00
34482;BME280;20720;48.886;9.388;2023-07-28T03:51:27;97647.94;;;20.65;100.00
34482;BME280;20720;48.886;9.388;2023-07-28T03:53:52;97651.69;;;20.64;100.00
34482;BME280;20720;48.886;9.388;2023-07-28T03:56:17;97651.69;;;20.64;100.00
34482;BME280;20720;48.886;9.388;2023-07-28T03:58:43;97655.16;;;20.65;100.00
34482;BME280;20720;48.886;9.388;2023-07-28T04:01:08;97637.47;;;19.96;100.00
34482;BME280;20720;48.886;9.388;2023-07-28T04:03:35;97641.22;;;20.39;100.00
34482;BME280;20720;48.886;9.388;2023-07-28T04:06:00;97643.09;;;20.72;100.00
34482;BME280;20720;48.886;9.388;2023-07-28T04:08:25;97645.34;;;20.84;100.00
34482;BME280;20720;48.886;9.388;2023-07-28T04:10:51;97650.75;;;20.79;100.00
34482;BME280;20720;48.886;9.388;2023-07-28T04:13:16;97649.81;;;20.93;100.00
34482;BME280;20720;48.886;9.388;2023-07-28T04:15:41;97640.28;;;20.87;100.00
34482;BME280;20720;48.886;9.388;2023-07-28T04:18:07;97621.00;;;20.28;100.00
34482;BME280;20720;48.886;9.388;2023-07-28T04:20:32;97627.69;;;20.88;100.00
34482;BME280;20720;48.886;9.388;2023-07-28T04:22:57;97626.16;;;21.10;100.00
34482;BME280;20720;48.886;9.388;2023-07-28T04:25:22;97631.63;;;21.00;100.00
34482;BME280;20720;48.886;9.388;2023-07-28T04:27:48;97634.94;;;20.87;100.00
34482;BME280;20720;48.886;9.388;2023-07-28T04:30:13;97632.75;;;21.18;100.00
34482;BME280;20720;48.886;9.388;2023-07-28T04:32:38;97633.75;;;21.27;100.00
34482;BME280;20720;48.886;9.388;2023-07-28T04:35:04;97633.56;;;20.90;100.00
34482;BME280;20720;48.886;9.388;2023-07-28T04:37:30;97620.31;;;20.46;100.00
34482;BME280;20720;48.886;9.388;2023-07-28T04:39:55;97626.28;;;20.95;100.00
34482;BME280;20720;48.886;9.388;2023-07-28T04:42:20;97636.13;;;21.28;100.00
34482;BME280;20720;48.886;9.388;2023-07-28T04:44:46;97629.88;;;21.38;100.00
34482;BME280;20720;48.886;9.388;2023-07-28T04:47:11;97632.16;;;21.49;100.00
34482;BME280;20720;48.886;9.388;2023-07-28T04:49:36;97626.06;;;20.92;100.00
34482;BME280;20720;48.886;9.388;2023-07-28T04:52:02;97606.22;;;20.74;100.00
34482;BME280;20720;48.886;9.388;2023-07-28T04:54:27;97607.78;;;21.27;100.00
34482;BME280;20720;48.886;9.388;2023-07-28T04:56:52;97621.81;;;21.19;100.00
34482;BME280;20720;48.886;9.388;2023-07-28T04:59:18;97623.72;;;21.37;100.00
34482;BME280;20720;48.886;9.388;2023-07-28T05:01:44;97618.06;;;21.44;100.00
34482;BME280;20720;48.886;9.388;2023-07-28T05:04:09;97629.47;;;21.49;100.00
34482;BME280;20720;48.886;9.388;2023-07-28T05:06:34;97625.06;;;21.59;100.00
34482;BME280;20720;48.886;9.388;2023-07-28T05:08:59;97619.59;;;20.98;100.00
34482;BME280;20720;48.886;9.388;2023-07-28T05:11:25;97622.31;;;21.21;100.00
34482;BME280;20720;48.886;9.388;2023-07-28T05:13:50;97629.19;;;21.27;100.00
34482;BME280;20720;48.886;9.388;2023-07-28T05:16:15;97632.25;;;21.39;100.00
34482;BME280;20720;48.886;9.388;2023-07-28T05:18:40;97636.34;;;21.56;100.00
34482;BME280;20720;48.886;9.388;2023-07-28T05:21:08;97638.75;;;21.57;100.00
34482;BME280;20720;48.886;9.388;2023-07-28T05:23:33;97644.97;;;21.71;100.00
34482;BME280;20720;48.886;9.388;2023-07-28T05:25:58;97647.41;;;21.68;100.00
34482;BME280;20720;48.886;9.388;2023-07-28T05:28:23;97654.53;;;21.77;100.00
34482;BME280;20720;48.886;9.388;2023-07-28T05:30:49;97647.13;;;21.93;100.00
34482;BME280;20720;48.886;9.388;2023-07-28T05:33:14;97646.09;;;21.89;100.00
34482;BME280;20720;48.886;9.388;2023-07-28T05:35:39;97650.44;;;21.85;100.00
34482;BME280;20720;48.886;9.388;2023-07-28T05:38:04;97653.13;;;22.03;100.00
34482;BME280;20720;48.886;9.388;2023-07-28T05:40:30;97654.13;;;22.07;100.00
34482;BME280;20720;48.886;9.388;2023-07-28T05:42:55;97661.75;;;22.19;100.00
34482;BME280;20720;48.886;9.388;2023-07-28T05:45:20;97656.53;;;22.09;100.00
34482;BME280;20720;48.886;9.388;2023-07-28T05:47:45;97654.31;;;21.26;100.00
34482;BME280;20720;48.886;9.388;2023-07-28T05:50:11;97653.75;;;21.06;100.00
34482;BME280;20720;48.886;9.388;2023-07-28T05:52:36;97662.50;;;21.82;100.00
34482;BME280;20720;48.886;9.388;2023-07-28T05:55:01;97667.06;;;21.82;100.00
34482;BME280;20720;48.886;9.388;2023-07-28T05:57:26;97664.56;;;22.09;100.00
34482;BME280;20720;48.886;9.388;2023-07-28T05:59:52;97666.75;;;22.25;100.00
34482;BME280;20720;48.886;9.388;2023-07-28T06:02:17;97668.84;;;22.10;100.00
34482;BME280;20720;48.886;9.388;2023-07-28T06:04:42;97675.56;;;22.26;100.00
34482;BME280;20720;48.886;9.388;2023-07-28T06:07:09;97672.44;;;21.82;100.00
34482;BME280;20720;48.886;9.388;2023-07-28T06:09:34;97674.75;;;21.65;100.00
34482;BME280;20720;48.886;9.388;2023-07-28T06:11:59;97655.34;;;21.30;100.00
34482;BME280;20720;48.886;9.388;2023-07-28T06:14:25;97650.97;;;20.82;100.00
34482;BME280;20720;48.886;9.388;2023-07-28T06:16:50;97652.34;;;21.08;100.00
34482;BME280;20720;48.886;9.388;2023-07-28T06:19:17;97654.94;;;20.56;100.00
34482;BME280;20720;48.886;9.388;2023-07-28T06:21:48;97655.13;;;21.27;100.00
34482;BME280;20720;48.886;9.388;2023-07-28T06:24:14;97676.91;;;21.63;100.00
34482;BME280;20720;48.886;9.388;2023-07-28T06:26:39;97681.31;;;21.96;100.00
34482;BME280;20720;48.886;9.388;2023-07-28T06:29:04;97682.81;;;22.25;100.00
34482;BME280;20720;48.886;9.388;2023-07-28T06:31:30;97687.84;;;22.45;100.00
34482;BME280;20720;48.886;9.388;2023-07-28T06:33:56;97687.00;;;22.50;100.00
34482;BME280;20720;48.886;9.388;2023-07-28T06:36:21;97694.13;;;22.55;100.00
34482;BME280;20720;48.886;9.388;2023-07-28T06:38:46;97701.84;;;22.61;100.00
34482;BME280;20720;48.886;9.388;2023-07-28T06:41:14;97701.03;;;22.61;100.00
34482;BME280;20720;48.886;9.388;2023-07-28T06:43:39;97697.41;;;22.52;100.00
34482;BME280;20720;48.886;9.388;2023-07-28T06:46:05;97706.50;;;22.51;100.00
34482;BME280;20720;48.886;9.388;2023-07-28T06:48:30;97709.72;;;22.34;100.00
34482;BME280;20720;48.886;9.388;2023-07-28T06:50:55;97715.81;;;22.58;100.00
34482;BME280;20720;48.886;9.388;2023-07-28T06:53:20;97721.78;;;22.31;100.00
34482;BME280;20720;48.886;9.388;2023-07-28T06:55:46;97727.47;;;22.67;100.00
34482;BME280;20720;48.886;9.388;2023-07-28T06:58:11;97731.81;;;22.63;100.00
34482;BME280;20720;48.886;9.388;2023-07-28T07:00:37;97717.28;;;22.08;100.00
34482;BME280;20720;48.886;9.388;2023-07-28T07:03:02;97713.31;;;22.24;100.00
34482;BME280;20720;48.886;9.388;2023-07-28T07:05:28;97677.53;;;21.54;100.00
34482;BME280;20720;48.886;9.388;2023-07-28T07:07:53;97697.50;;;22.65;100.00
34482;BME280;20720;48.886;9.388;2023-07-28T07:10:19;97712.88;;;23.05;100.00
34482;BME280;20720;48.886;9.388;2023-07-28T07:12:45;97707.13;;;23.30;100.00
34482;BME280;20720;48.886;9.388;2023-07-28T07:15:11;97718.06;;;23.34;100.00
34482;BME280;20720;48.886;9.388;2023-07-28T07:17:37;97718.56;;;23.50;100.00
34482;BME280;20720;48.886;9.388;2023-07-28T07:20:02;97719.59;;;23.21;100.00
34482;BME280;20720;48.886;9.388;2023-07-28T07:22:28;97719.34;;;23.37;100.00
34482;BME280;20720;48.886;9.388;2023-07-28T07:24:53;97716.97;;;22.71;100.00
34482;BME280;20720;48.886;9.388;2023-07-28T07:27:18;97726.16;;;22.65;100.00
34482;BME280;20720;48.886;9.388;2023-07-28T07:29:43;97727.56;;;22.94;100.00
34482;BME280;20720;48.886;9.388;2023-07-28T07:32:09;97724.06;;;23.26;100.00
34482;BME280;20720;48.886;9.388;2023-07-28T07:34:36;97729.69;;;23.57;100.00
34482;BME280;20720;48.886;9.388;2023-07-28T07:37:03;97729.16;;;22.95;100.00
34482;BME280;20720;48.886;9.388;2023-07-28T07:39:29;97739.97;;;22.72;100.00
34482;BME280;20720;48.886;9.388;2023-07-28T07:41:54;97732.84;;;23.45;100.00
34482;BME280;20720;48.886;9.388;2023-07-28T07:44:20;97742.25;;;23.29;100.00
34482;BME280;20720;48.886;9.388;2023-07-28T07:46:45;97743.63;;;23.59;100.00
34482;BME280;20720;48.886;9.388;2023-07-28T07:49:10;97735.28;;;24.14;100.00
34482;BME280;20720;48.886;9.388;2023-07-28T07:51:35;97743.75;;;24.57;100.00
34482;BME280;20720;48.886;9.388;2023-07-28T07:54:02;97746.19;;;24.45;100.00
34482;BME280;20720;48.886;9.388;2023-07-28T07:56:27;97752.63;;;24.44;100.00
34482;BME280;20720;48.886;9.388;2023-07-28T07:58:53;97748.38;;;24.43;100.00
34482;BME280;20720;48.886;9.388;2023-07-28T08:01:18;97756.03;;;23.68;100.00
34482;BME280;20720;48.886;9.388;2023-07-28T08:03:43;97764.69;;;23.92;100.00
34482;BME280;20720;48.886;9.388;2023-07-28T08:06:08;97762.53;;;24.08;100.00
34482;BME280;20720;48.886;9.388;2023-07-28T08:08:36;97762.03;;;24.06;100.00
34482;BME280;20720;48.886;9.388;2023-07-28T08:11:01;97767.66;;;23.77;100.00
34482;BME280;20720;48.886;9.388;2023-07-28T08:13:27;97766.94;;;23.26;100.00
34482;BME280;20720;48.886;9.388;2023-07-28T08:15:53;97773.78;;;24.10;100.00
34482;BME280;20720;48.886;9.388;2023-07-28T08:18:19;97767.88;;;24.35;100.00
34482;BME280;20720;48.886;9.388;2023-07-28T08:20:44;97778.63;;;24.35;100.00
34482;BME280;20720;48.886;9.388;2023-07-28T08:23:09;97770.19;;;24.28;100.00
34482;BME280;20720;48.886;9.388;2023-07-28T08:25:36;97780.50;;;24.48;100.00
34482;BME280;20720;48.886;9.388;2023-07-28T08:28:01;97785.25;;;24.51;100.00
34482;BME280;20720;48.886;9.388;2023-07-28T08:30:26;97791.03;;;24.58;100.00
34482;BME280;20720;48.886;9.388;2023-07-28T08:32:52;97789.00;;;24.64;100.00
34482;BME280;20720;48.886;9.388;2023-07-28T08:35:17;97796.81;;;24.38;100.00
34482;BME280;20720;48.886;9.388;2023-07-28T08:37:43;97803.72;;;24.66;100.00
34482;BME280;20720;48.886;9.388;2023-07-28T08:40:08;97795.47;;;24.76;100.00
34482;BME280;20720;48.886;9.388;2023-07-28T08:42:38;97801.03;;;24.66;100.00
34482;BME280;20720;48.886;9.388;2023-07-28T08:45:05;97802.22;;;24.11;100.00
34482;BME280;20720;48.886;9.388;2023-07-28T08:47:31;97809.78;;;24.09;100.00
34482;BME280;20720;48.886;9.388;2023-07-28T08:49:57;97809.03;;;24.71;100.00
34482;BME280;20720;48.886;9.388;2023-07-28T08:52:22;97809.66;;;24.41;100.00
34482;BME280;20720;48.886;9.388;2023-07-28T08:54:49;97813.28;;;24.72;100.00
34482;BME280;20720;48.886;9.388;2023-07-28T08:57:14;97820.66;;;25.02;100.00
34482;BME280;20720;48.886;9.388;2023-07-28T08:59:39;97824.22;;;25.11;100.00
34482;BME280;20720;48.886;9.388;2023-07-28T09:02:09;97826.13;;;25.11;100.00
34482;BME280;20720;48.886;9.388;2023-07-28T09:04:34;97824.72;;;25.13;100.00
34482;BME280;20720;48.886;9.388;2023-07-28T09:06:59;97829.28;;;23.69;100.00
34482;BME280;20720;48.886;9.388;2023-07-28T09:09:31;97832.44;;;24.30;100.00
34482;BME280;20720;48.886;9.388;2023-07-28T09:11:57;97824.59;;;24.34;100.00
34482;BME280;20720;48.886;9.388;2023-07-28T09:14:23;97832.38;;;23.76;100.00
34482;BME280;20720;48.886;9.388;2023-07-28T09:16:52;97827.56;;;24.05;100.00
34482;BME280;20720;48.886;9.388;2023-07-28T09:19:20;97831.28;;;23.90;100.00
34482;BME280;20720;48.886;9.388;2023-07-28T09:21:45;97819.31;;;24.91;100.00
34482;BME280;20720;48.886;9.388;2023-07-28T09:24:21;97831.53;;;24.21;100.00
34482;BME280;20720;48.886;9.388;2023-07-28T09:26:47;97823.81;;;25.18;100.00
34482;BME280;20720;48.886;9.388;2023-07-28T09:29:16;97824.97;;;24.54;100.00
34482;BME280;20720;48.886;9.388;2023-07-28T09:31:45;97831.13;;;25.40;100.00
34482;BME280;20720;48.886;9.388;2023-07-28T09:34:11;97834.94;;;25.69;100.00
34482;BME280;20720;48.886;9.388;2023-07-28T09:36:37;97838.75;;;26.38;100.00
34482;BME280;20720;48.886;9.388;2023-07-28T09:39:04;97847.78;;;27.41;100.00
34482;BME280;20720;48.886;9.388;2023-07-28T09:41:32;97851.00;;;27.98;100.00
34482;BME280;20720;48.886;9.388;2023-07-28T09:43:59;97860.53;;;28.04;100.00
34482;BME280;20720;48.886;9.388;2023-07-28T09:46:28;97855.41;;;29.40;97.90
34482;BME280;20720;48.886;9.388;2023-07-28T09:48:56;97873.13;;;29.17;96.92
34482;BME280;20720;48.886;9.388;2023-07-28T09:51:22;97868.81;;;28.74;98.54
34482;BME280;20720;48.886;9.388;2023-07-28T09:53:53;97869.81;;;29.85;93.69
34482;BME280;20720;48.886;9.388;2023-07-28T09:56:22;97866.97;;;29.08;88.08
34482;BME280;20720;48.886;9.388;2023-07-28T09:58:52;97875.47;;;27.84;94.71
34482;BME280;20720;48.886;9.388;2023-07-28T10:01:19;97877.34;;;28.10;93.97
34482;BME280;20720;48.886;9.388;2023-07-28T10:03:47;97873.28;;;27.95;97.38
34482;BME280;20720;48.886;9.388;2023-07-28T10:06:13;97872.97;;;29.75;89.58
34482;BME280;20720;48.886;9.388;2023-07-28T10:08:40;97885.69;;;30.19;85.15
34482;BME280;20720;48.886;9.388;2023-07-28T10:11:06;97886.63;;;27.66;95.07
34482;BME280;20720;48.886;9.388;2023-07-28T10:13:42;97882.19;;;27.02;100.00
34482;BME280;20720;48.886;9.388;2023-07-28T10:16:08;97887.47;;;28.88;90.25
34482;BME280;20720;48.886;9.388;2023-07-28T10:18:34;97883.19;;;27.40;100.00
34482;BME280;20720;48.886;9.388;2023-07-28T10:21:10;97885.69;;;27.62;98.52
34482;BME280;20720;48.886;9.388;2023-07-28T10:23:38;97885.41;;;28.27;92.81
34482;BME280;20720;48.886;9.388;2023-07-28T10:26:04;97879.63;;;27.82;95.76
34482;BME280;20720;48.886;9.388;2023-07-28T10:28:37;97877.44;;;27.16;100.00
34482;BME280;20720;48.886;9.388;2023-07-28T10:31:10;97889.94;;;26.38;100.00
34482;BME280;20720;48.886;9.388;2023-07-28T10:33:38;97890.19;;;26.59;100.00
34482;BME280;20720;48.886;9.388;2023-07-28T10:39:01;97890.75;;;27.04;100.00
34482;BME280;20720;48.886;9.388;2023-07-28T10:41:28;97890.31;;;27.36;99.59
34482;BME280;20720;48.886;9.388;2023-07-28T10:43:53;97886.75;;;26.75;100.00
34482;BME280;20720;48.886;9.388;2023-07-28T10:46:21;97883.81;;;25.63;100.00
34482;BME280;20720;48.886;9.388;2023-07-28T10:48:48;97888.19;;;26.42;100.00
34482;BME280;20720;48.886;9.388;2023-07-28T10:51:24;97887.53;;;26.37;100.00
34482;BME280;20720;48.886;9.388;2023-07-28T10:53:51;97894.22;;;26.95;100.00
34482;BME280;20720;48.886;9.388;2023-07-28T10:56:17;97894.13;;;27.43;100.00
34482;BME280;20720;48.886;9.388;2023-07-28T10:58:43;97887.75;;;27.82;96.37
34482;BME280;20720;48.886;9.388;2023-07-28T11:01:09;97895.38;;;27.29;100.00
34482;BME280;20720;48.886;9.388;2023-07-28T11:03:34;97893.19;;;27.39;100.00
34482;BME280;20720;48.886;9.388;2023-07-28T11:05:59;97891.72;;;27.25;100.00
34482;BME280;20720;48.886;9.388;2023-07-28T11:08:26;97898.22;;;27.15;100.00
34482;BME280;20720;48.886;9.388;2023-07-28T11:10:51;97899.06;;;26.20;100.00
34482;BME280;20720;48.886;9.388;2023-07-28T11:13:17;97892.56;;;25.99;100.00
34482;BME280;20720;48.886;9.388;2023-07-28T11:15:42;97892.97;;;26.06;100.00
34482;BME280;20720;48.886;9.388;2023-07-28T11:18:08;97890.06;;;26.02;100.00
34482;BME280;20720;48.886;9.388;2023-07-28T11:20:34;97895.56;;;26.59;100.00
34482;BME280;20720;48.886;9.388;2023-07-28T11:23:04;97899.56;;;26.00;100.00
34482;BME280;20720;48.886;9.388;2023-07-28T11:25:31;97897.91;;;26.52;100.00
34482;BME280;20720;48.886;9.388;2023-07-28T11:27:58;97909.91;;;26.76;100.00
34482;BME280;20720;48.886;9.388;2023-07-28T11:30:26;97903.06;;;26.31;100.00
34482;BME280;20720;48.886;9.388;2023-07-28T11:32:52;97911.84;;;26.45;100.00
34482;BME280;20720;48.886;9.388;2023-07-28T11:35:19;97902.88;;;27.32;100.00
34482;BME280;20720;48.886;9.388;2023-07-28T11:37:50;97899.16;;;27.87;100.00
34482;BME280;20720;48.886;9.388;2023-07-28T11:40:18;97897.63;;;28.24;100.00
34482;BME280;20720;48.886;9.388;2023-07-28T11:42:46;97904.03;;;28.87;95.31
34482;BME280;20720;48.886;9.388;2023-07-28T11:45:13;97901.84;;;27.96;92.76
34482;BME280;20720;48.886;9.388;2023-07-28T11:47:39;97896.13;;;26.95;100.00
34482;BME280;20720;48.886;9.388;2023-07-28T11:50:05;97895.53;;;29.26;91.39
34482;BME280;20720;48.886;9.388;2023-07-28T11:52:34;97890.38;;;30.67;82.08
34482;BME280;20720;48.886;9.388;2023-07-28T11:55:04;97911.44;;;31.46;78.78
34482;BME280;20720;48.886;9.388;2023-07-28T11:57:30;97907.88;;;30.45;80.56
34482;BME280;20720;48.886;9.388;2023-07-28T12:00:04;97902.47;;;30.82;81.80
34482;BME280;20720;48.886;9.388;2023-07-28T12:02:31;97902.88;;;31.20;79.37
34482;BME280;20720;48.886;9.388;2023-07-28T12:04:58;97912.38;;;31.26;75.88
34482;BME280;20720;48.886;9.388;2023-07-28T12:07:33;97910.19;;;29.25;86.38
34482;BME280;20720;48.886;9.388;2023-07-28T12:10:03;97903.81;;;30.27;80.51
34482;BME280;20720;48.886;9.388;2023-07-28T12:12:38;97907.66;;;30.99;78.00
34482;BME280;20720;48.886;9.388;2023-07-28T12:15:18;97899.78;;;30.94;76.81
34482;BME280;20720;48.886;9.388;2023-07-28T12:18:20;97903.53;;;29.76;79.05
34482;BME280;20720;48.886;9.388;2023-07-28T12:20:49;97902.69;;;30.40;76.13
34482;BME280;20720;48.886;9.388;2023-07-28T12:23:19;97896.38;;;30.36;77.55
34482;BME280;20720;48.886;9.388;2023-07-28T12:25:45;97907.50;;;29.78;77.51
34482;BME280;20720;48.886;9.388;2023-07-28T12:28:11;97916.63;;;28.83;81.97
34482;BME280;20720;48.886;9.388;2023-07-28T12:30:36;97920.91;;;27.91;91.01
34482;BME280;20720;48.886;9.388;2023-07-28T12:33:03;97904.13;;;26.61;100.00
34482;BME280;20720;48.886;9.388;2023-07-28T12:35:29;97904.78;;;25.96;100.00
34482;BME280;20720;48.886;9.388;2023-07-28T12:38:03;97899.13;;;26.37;100.00
34482;BME280;20720;48.886;9.388;2023-07-28T12:40:30;97901.41;;;27.26;100.00
34482;BME280;20720;48.886;9.388;2023-07-28T12:42:56;97907.91;;;27.08;100.00
34482;BME280;20720;48.886;9.388;2023-07-28T12:45:22;97897.31;;;26.63;100.00
34482;BME280;20720;48.886;9.388;2023-07-28T12:47:47;97900.91;;;27.07;100.00
34482;BME280;20720;48.886;9.388;2023-07-28T12:50:13;97908.41;;;27.69;100.00
34482;BME280;20720;48.886;9.388;2023-07-28T12:52:38;97905.69;;;27.78;100.00